Data for 02/15/2007

Time Sea-Level Adjusted Pressure Absolute Pressure Temperature Relative Humidity Dew Point   
(mb) (inHg) (mb) (inHg) (C) (F) (%) (C) (F)
00:05 1018 30.06 848 25.04 -2.8 27 76 -6.5 20.3
00:10 1018 30.06 848 25.04 -2.8 27 75 -6.5 20.2
00:15 1018 30.06 847 25.01 -2.7 27.1 75 -6.6 20.2
00:20 1018 30.06 847 25.01 -2.8 27 76 -6.4 20.5
00:25 1018 30.06 847 25.01 -3 26.5 76 -6.6 20.1
00:30 1018 30.06 847 25.01 -3 26.6 75 -6.7 19.9
00:35 1018 30.06 847 25.01 -2.6 27.3 73 -6.8 19.8
00:40 1018 30.06 847 25.01 -2.4 27.6 72 -6.8 19.8
00:45 1018 30.06 847 25.01 -2.5 27.5 73 -6.7 19.9
00:50 1018 30.06 847 25.01 -2.6 27.3 73 -6.8 19.8
00:55 1018 30.06 847 25.01 -2.7 27.1 74 -6.8 19.7
01:00 1018 30.06 847 25.01 -2.7 27.2 73 -6.9 19.6
01:05 1018 30.06 847 25.01 -2.6 27.4 73 -6.8 19.7
01:10 1018 30.06 847 25.01 -2.6 27.3 74 -6.7 20
01:15 1018 30.06 847 25.01 -2.9 26.8 75 -6.7 20
01:20 1018 30.06 847 25.01 -2.8 26.9 76 -6.6 20.2
01:25 1018 30.06 847 25.01 -2.9 26.8 76 -6.6 20.1
01:30 1018 30.06 847 25.01 -2.9 26.7 76 -6.5 20.3
01:35 1018 30.06 847 25.01 -2.9 26.8 77 -6.5 20.4
01:40 1018 30.06 847 25.01 -2.9 26.9 77 -6.3 20.6
01:45 1018 30.06 847 25.01 -2.9 26.7 78 -6.2 20.8
01:50 1018 30.06 847 25.01 -3.2 26.2 79 -6.3 20.6
01:55 1018 30.06 847 25.01 -3.5 25.7 81 -6.4 20.5
02:00 1018 30.06 847 25.01 -3.8 25.2 83 -6.4 20.6
02:05 1018 30.06 847 25.01 -4.2 24.5 84 -6.5 20.3
02:10 1018 30.06 847 25.01 -4.7 23.5 86 -6.7 19.9
02:15 1018 30.06 847 25.01 -5.3 22.5 88 -6.9 19.5
02:20 1018 30.06 847 25.01 -5.5 22.1 88 -7.1 19.2
02:25 1018 30.06 847 25.01 -5.7 21.8 89 -7.2 19
02:30 1018 30.06 847 25.01 -5.7 21.7 91 -7 19.4
02:35 1018 30.06 847 25.01 -5.4 22.3 90 -6.8 19.7
02:40 1018 30.06 847 25.01 -5.1 22.8 88 -6.9 19.6
02:45 1018 30.06 847 25.01 -4.9 23.2 86 -6.9 19.5
02:50 1018 30.06 847 25.01 -4.6 23.7 86 -6.6 20.1
02:55 1018 30.06 847 25.01 -4.7 23.5 87 -6.6 20.2
03:00 1018 30.06 847 25.01 -4.6 23.7 85 -6.8 19.8
03:05 1018 30.06 847 25.01 -4.4 24.1 85 -6.5 20.2
03:10 1018 30.06 847 25.01 -4.2 24.5 83 -6.7 20
03:15 1018 30.06 847 25.01 -3.7 25.3 82 -6.4 20.5
03:20 1018 30.06 847 25.01 -3.4 25.9 80 -6.4 20.5
03:25 1018 30.06 847 25.01 -3.5 25.8 82 -6.1 21
03:30 1018 30.06 847 25.01 -3.4 25.9 81 -6.2 20.8
03:35 1017 30.03 847 25.01 -3.4 26 82 -6.1 21.1
03:40 1018 30.06 847 25.01 -3.5 25.8 83 -6 21.2
03:45 1018 30.06 847 25.01 -3.3 26 82 -6 21.2
03:50 1018 30.06 847 25.01 -3.2 26.3 81 -5.9 21.3
03:55 1018 30.06 847 25.01 -2.9 26.7 80 -5.9 21.5
04:00 1018 30.06 847 25.01 -2.9 26.8 83 -5.4 22.3
04:05 1018 30.06 847 25.01 -3 26.5 85 -5.2 22.7
04:10 1018 30.06 847 25.01 -3.1 26.3 87 -5 23.1
04:15 1018 30.06 847 25.01 -3.1 26.3 89 -4.7 23.5
04:20 1018 30.06 847 25.01 -3.2 26.3 91 -4.5 24
04:25 1018 30.06 847 25.01 -3 26.7 91 -4.2 24.4
04:30 1018 30.06 847 25.01 -3 26.7 91 -4.2 24.4
04:35 1018 30.06 847 25.01 -2.9 26.7 92 -4 24.7
04:40 1018 30.06 847 25.01 -3 26.6 92 -4.1 24.7
04:45 1018 30.06 847 25.01 -3 26.6 93 -4 24.9
04:50 1018 30.06 847 25.01 -3 26.7 93 -3.9 24.9
04:55 1018 30.06 847 25.01 -3.2 26.3 93 -4.1 24.7
05:00 1018 30.06 847 25.01 -3.3 26.1 95 -4 24.8
05:05 1018 30.06 847 25.01 -3.2 26.3 95 -3.8 25.1
05:10 1018 30.06 847 25.01 -3.1 26.4 95 -3.9 25
05:15 1018 30.06 847 25.01 -3.3 26 95 -4 24.7
05:20 1018 30.06 847 25.01 -3.5 25.7 95 -4.1 24.6
05:25 1018 30.06 847 25.01 -3.5 25.7 96 -4.1 24.6
05:30 1018 30.06 847 25.01 -3.4 25.8 96 -3.9 24.9
05:35 1018 30.06 847 25.01 -3.4 25.9 96 -3.9 25
05:40 1018 30.06 847 25.01 -3.5 25.8 96 -4 24.9
05:45 1018 30.06 847 25.01 -3.5 25.8 96 -4 24.9
05:50 1018 30.06 847 25.01 -3.5 25.8 97 -3.9 24.9
05:55 1018 30.06 847 25.01 -3.4 25.8 97 -3.9 25
06:00 1018 30.06 847 25.01 -3.3 26 97 -3.8 25.2
06:05 1018 30.06 847 25.01 -3.3 26 97 -3.8 25.2
06:10 1018 30.06 847 25.01 -3.2 26.2 96 -3.7 25.3
06:15 1018 30.06 847 25.01 -3.3 26 96 -3.9 25
06:20 1018 30.06 847 25.01 -3.5 25.7 96 -4 24.8
06:25 1018 30.06 847 25.01 -3.5 25.7 97 -3.9 25
06:30 1018 30.06 847 25.01 -3.2 26.2 97 -3.6 25.5
06:35 1018 30.06 847 25.01 -3.2 26.2 96 -3.7 25.3
06:40 1018 30.06 847 25.01 -3.1 26.4 97 -3.6 25.6
06:45 1018 30.06 847 25.01 -2.9 26.8 96 -3.4 25.9
06:50 1018 30.06 847 25.01 -2.8 27 96 -3.3 26.1
06:55 1018 30.06 847 25.01 -2.6 27.3 96 -3.2 26.2
07:00 1018 30.06 847 25.01 -2.6 27.3 95 -3.4 26
07:05 1018 30.06 847 25.01 -2.7 27.1 95 -3.4 25.8
07:10 1018 30.06 847 25.01 -2.9 26.8 95 -3.6 25.5
07:15 1018 30.06 847 25.01 -2.9 26.8 95 -3.5 25.6
07:20 1018 30.06 847 25.01 -2.8 27 95 -3.4 25.8
07:25 1018 30.06 847 25.01 -2.7 27.1 95 -3.5 25.8
07:30 1018 30.06 847 25.01 -2.7 27.2 94 -3.5 25.7
07:35 1018 30.06 847 25.01 -2.8 26.9 94 -3.6 25.5
07:40 1018 30.06 847 25.01 -2.9 26.8 95 -3.6 25.4
07:45 1018 30.06 847 25.01 -2.9 26.7 95 -3.7 25.4
07:50 1018 30.06 847 25.01 -2.8 27 95 -3.5 25.8
07:55 1018 30.06 847 25.01 -2.5 27.6 95 -3.2 26.2
08:00 1018 30.06 848 25.04 -2.2 28.1 94 -3 26.5
08:05 1018 30.06 848 25.04 -2.1 28.2 93 -3.1 26.5
08:10 1018 30.06 848 25.04 -2 28.5 93 -3 26.6
08:15 1018 30.06 848 25.04 -1.8 28.7 90 -3.3 26.1
08:20 1018 30.06 848 25.04 -2.1 28.2 91 -3.4 25.9
08:25 1019 30.09 848 25.04 -2 28.4 92 -3.1 26.4
08:30 1019 30.09 848 25.04 -1.7 28.9 91 -3 26.5
08:35 1019 30.09 848 25.04 -1.8 28.8 90 -3.2 26.3
08:40 1019 30.09 848 25.04 -2.1 28.3 91 -3.3 26
08:45 1019 30.09 848 25.04 -2.1 28.2 91 -3.4 26
08:50 1019 30.09 848 25.04 -2.1 28.2 91 -3.4 25.8
08:55 1019 30.09 848 25.04 -2.1 28.2 91 -3.4 25.9
09:00 1019 30.09 848 25.04 -2 28.5 90 -3.4 25.8
09:05 1019 30.09 848 25.04 -1.9 28.6 90 -3.4 26
09:10 1019 30.09 848 25.04 -1.7 28.9 88 -3.4 25.9
09:15 1019 30.09 848 25.04 -1.3 29.6 87 -3.2 26.2
09:20 1019 30.09 848 25.04 -1.1 30.1 86 -3.1 26.4
09:25 1019 30.09 848 25.04 -1.3 29.7 87 -3.2 26.2
09:30 1019 30.09 848 25.04 -1.3 29.7 87 -3.2 26.3
09:35 1019 30.09 848 25.04 -0.6 30.8 82 -3.4 25.8
09:40 1019 30.09 848 25.04 -0.5 31.2 81 -3.3 26.1
09:45 1019 30.09 848 25.04 -0.2 31.7 78 -3.6 25.6
09:50 1019 30.09 848 25.04 -0 32 76 -3.7 25.4
09:55 1019 30.09 848 25.04 0.2 32.4 76 -3.6 25.6
10:00 1019 30.09 848 25.04 0.7 33.3 74 -3.4 26
10:05 1019 30.09 848 25.04 1.3 34.3 71 -3.5 25.8
10:10 1019 30.09 848 25.04 1.4 34.6 72 -3.1 26.5
10:15 1019 30.09 848 25.04 1.6 34.9 73 -2.8 27
10:20 1019 30.09 848 25.04 1.7 35.1 72 -2.9 26.8
10:25 1019 30.09 848 25.04 1.9 35.5 67 -3.5 25.6
10:30 1019 30.09 848 25.04 2.2 36 67 -3.3 26.1
10:35 1019 30.09 848 25.04 2.7 36.9 66 -3 26.7
10:40 1019 30.09 848 25.04 3 37.4 66 -2.8 27
10:45 1019 30.09 848 25.04 2.9 37.2 69 -2.3 27.8
10:50 1019 30.09 848 25.04 2.6 36.7 68 -2.8 27
10:55 1019 30.09 848 25.04 2.5 36.6 68 -2.7 27.1
11:00 1019 30.09 848 25.04 2.7 36.9 68 -2.6 27.3
11:05 1019 30.09 848 25.04 3 37.5 66 -2.8 27
11:10 1019 30.09 848 25.04 3.3 37.9 64 -3 26.7
11:15 1019 30.09 848 25.04 3.6 38.6 62 -3 26.5
11:20 1019 30.09 848 25.04 4.1 39.4 58 -3.3 26
11:25 1019 30.09 848 25.04 4.4 39.9 58 -3.1 26.4
11:30 1019 30.09 848 25.04 3.9 39.1 58 -3.5 25.7
11:35 1019 30.09 848 25.04 3.7 38.7 59 -3.5 25.7
11:40 1019 30.09 848 25.04 3.9 39 59 -3.4 25.8
11:45 1019 30.09 848 25.04 3.9 39.1 57 -3.9 25
11:50 1019 30.09 848 25.04 4 39.1 59 -3.4 25.8
11:55 1019 30.09 848 25.04 4.1 39.5 57 -3.6 25.5
12:00 1019 30.09 848 25.04 4.1 39.4 57 -3.7 25.3
12:05 1018 30.06 848 25.04 3.9 39 57 -3.8 25.1
12:10 1018 30.06 848 25.04 3.8 38.9 58 -3.7 25.3
12:15 1018 30.06 847 25.01 4 39.1 57 -3.7 25.3
12:20 1018 30.06 847 25.01 4 39.3 56 -4 24.7
12:25 1018 30.06 847 25.01 4.1 39.4 55 -4.1 24.6
12:30 1018 30.06 847 25.01 4.2 39.5 56 -3.8 25.1
12:35 1018 30.06 847 25.01 4.5 40.1 54 -4 24.8
12:40 1018 30.06 847 25.01 4.7 40.5 55 -3.5 25.7
12:45 1018 30.06 847 25.01 4.9 40.8 55 -3.5 25.7
12:50 1018 30.06 847 25.01 5 41 54 -3.5 25.7
12:55 1018 30.06 847 25.01 5.3 41.6 54 -3.3 26.1
13:00 1017 30.03 847 25.01 5.9 42.5 52 -3.3 26.1
13:05 1017 30.03 846 24.98 6 42.8 51 -3.3 26
13:10 1017 30.03 846 24.98 6.2 43.1 51 -3.1 26.5
13:15 1017 30.03 846 24.98 6.1 42.9 52 -3.1 26.4
13:20 1017 30.03 846 24.98 5.5 41.8 55 -2.9 26.8
13:25 1017 30.03 846 24.98 5.2 41.4 56 -2.9 26.8
13:30 1017 30.03 846 24.98 5.8 42.4 52 -3.2 26.2
13:35 1017 30.03 846 24.98 6.2 43.1 50 -3.4 25.8
13:40 1017 30.03 846 24.98 7.3 45.1 48 -3.1 26.4
13:45 1017 30.03 846 24.98 7.4 45.2 50 -2.4 27.6
13:50 1017 30.03 846 24.98 7.3 45.1 49 -2.7 27.1
13:55 1017 30.03 846 24.98 7.3 45.1 51 -2.3 27.9
14:00 1017 30.03 846 24.98 7.3 45.2 51 -2 28.4
14:05 1017 30.03 846 24.98 7.5 45.5 52 -1.7 28.9
14:10 1017 30.03 846 24.98 7.3 45.1 52 -2 28.3
14:15 1017 30.03 846 24.98 6.9 44.4 53 -1.9 28.6
14:20 1017 30.03 846 24.98 6.5 43.6 55 -1.8 28.8
14:25 1017 30.03 846 24.98 6.3 43.3 55 -2.1 28.3
14:30 1017 30.03 846 24.98 6.3 43.3 55 -2.1 28.2
14:35 1017 30.03 846 24.98 6.1 42.9 56 -2.1 28.2
14:40 1017 30.03 846 24.98 5.8 42.5 56 -2.2 28.1
14:45 1017 30.03 846 24.98 5.8 42.4 56 -2.2 28
14:50 1017 30.03 846 24.98 5.9 42.6 56 -2.3 27.9
14:55 1017 30.03 846 24.98 6 42.8 55 -2.2 28
15:00 1017 30.03 846 24.98 6.1 42.9 56 -2.1 28.2
15:05 1016 30 846 24.98 5.9 42.5 56 -2.2 28
15:10 1016 30 846 24.98 5.5 41.9 56 -2.5 27.4
15:15 1016 30 845 24.95 5.4 41.7 57 -2.4 27.7
15:20 1016 30 845 24.95 5.5 41.8 56 -2.6 27.4
15:25 1016 30 845 24.95 5.4 41.8 57 -2.4 27.6
15:30 1016 30 845 24.95 5.4 41.7 57 -2.4 27.6
15:35 1016 30 845 24.95 5.2 41.4 57 -2.5 27.6
15:40 1016 30 845 24.95 5.2 41.3 57 -2.7 27.2
15:45 1016 30 845 24.95 5.1 41.2 54 -3.4 25.9
15:50 1016 30 845 24.95 5.2 41.3 55 -3.2 26.3
15:55 1016 30 845 24.95 5.3 41.5 56 -2.8 26.9
16:00 1015 29.97 845 24.95 5.1 41.2 57 -2.7 27.2
16:05 1015 29.97 845 24.95 4.9 40.9 58 -2.6 27.3
16:10 1015 29.97 845 24.95 4.7 40.4 58 -2.8 26.9
16:15 1015 29.97 844 24.92 4.7 40.4 60 -2.4 27.7
16:20 1015 29.97 844 24.92 4.6 40.3 61 -2.2 28
16:25 1015 29.97 844 24.92 4.2 39.6 62 -2.5 27.6
16:30 1015 29.97 844 24.92 4 39.3 59 -3.1 26.3
16:35 1015 29.97 844 24.92 4.2 39.5 60 -3 26.7
16:40 1015 29.97 844 24.92 4.4 39.9 60 -2.7 27.2
16:45 1015 29.97 844 24.92 4.4 39.9 57 -3.4 25.9
16:50 1015 29.97 844 24.92 4.3 39.7 61 -2.6 27.4
16:55 1015 29.97 844 24.92 3.9 39 65 -2.2 28.1
17:00 1015 29.97 844 24.92 4 39.2 65 -2 28.5
17:05 1014 29.94 844 24.92 3.9 39.1 65 -2 28.5
17:10 1014 29.94 844 24.92 3.7 38.7 66 -2 28.4
17:15 1014 29.94 843 24.89 3.7 38.6 66 -2.1 28.2
17:20 1014 29.94 843 24.89 3.9 39 65 -2.1 28.2
17:25 1014 29.94 843 24.89 4 39.2 64 -2.2 28
17:30 1014 29.94 843 24.89 4.3 39.7 62 -2.4 27.7
17:35 1014 29.94 843 24.89 4.6 40.3 60 -2.4 27.7
17:40 1014 29.94 843 24.89 4.8 40.6 59 -2.7 27.2
17:45 1014 29.94 843 24.89 4.8 40.6 57 -3.1 26.5
17:50 1014 29.94 843 24.89 4.9 40.8 58 -2.8 27
17:55 1014 29.94 843 24.89 4.9 40.8 56 -3.2 26.3
18:00 1014 29.94 843 24.89 5.2 41.4 55 -3.1 26.4
18:05 1014 29.94 843 24.89 5.4 41.6 55 -3 26.6
18:10 1014 29.94 843 24.89 5.3 41.6 55 -2.9 26.8
18:15 1014 29.94 843 24.89 5.4 41.7 55 -3 26.6
18:20 1014 29.94 843 24.89 5.3 41.5 56 -2.8 27
18:25 1013 29.91 843 24.89 5.2 41.4 55 -3.2 26.3
18:30 1013 29.91 843 24.89 5.5 42 54 -3.1 26.5
18:35 1013 29.91 843 24.89 5.8 42.4 52 -3.3 26
18:40 1013 29.91 842 24.86 6 42.8 51 -3.4 25.9
18:45 1013 29.91 842 24.86 6.3 43.3 51 -3.1 26.5
18:50 1013 29.91 842 24.86 6.3 43.3 51 -3.1 26.5
18:55 1013 29.91 842 24.86 6.1 43.1 52 -2.9 26.8
19:00 1013 29.91 842 24.86 6.1 43 53 -2.8 26.9
19:05 1013 29.91 842 24.86 6.2 43.2 52 -3 26.7
19:10 1013 29.91 842 24.86 6.3 43.3 52 -2.9 26.8
19:15 1013 29.91 842 24.86 6.4 43.6 50 -3.1 26.4
19:20 1013 29.91 842 24.86 6.4 43.4 52 -2.8 26.9
19:25 1013 29.91 842 24.86 6.3 43.3 52 -2.9 26.8
19:30 1013 29.91 842 24.86 6.2 43.1 53 -2.8 26.9
19:35 1013 29.91 842 24.86 6.1 43 53 -2.9 26.8
19:40 1013 29.91 842 24.86 6.1 42.9 53 -2.7 27.2
19:45 1012 29.88 842 24.86 6.1 43 53 -2.7 27.1
19:50 1013 29.91 842 24.86 6.1 43 53 -2.7 27.1
19:55 1012 29.88 842 24.86 6.2 43.1 53 -2.7 27.2
20:00 1012 29.88 842 24.86 6.1 43.1 53 -2.6 27.3
20:05 1012 29.88 842 24.86 6.2 43.2 52 -2.9 26.8
20:10 1012 29.88 841 24.83 6.4 43.5 52 -2.8 27
20:15 1012 29.88 841 24.83 6.4 43.6 52 -2.7 27.1
20:20 1012 29.88 841 24.83 6.5 43.7 51 -2.9 26.8
20:25 1012 29.88 841 24.83 6.5 43.6 52 -2.6 27.3
20:30 1012 29.88 841 24.83 6.3 43.4 53 -2.5 27.5
20:35 1012 29.88 841 24.83 6.4 43.5 53 -2.6 27.3
20:40 1012 29.88 841 24.83 6.5 43.6 53 -2.5 27.5
20:45 1012 29.88 841 24.83 6.4 43.6 53 -2.6 27.4
20:50 1012 29.88 841 24.83 6.6 43.9 52 -2.6 27.3
20:55 1012 29.88 841 24.83 6.7 44 52 -2.6 27.3
21:00 1012 29.88 841 24.83 6.5 43.7 53 -2.4 27.6
21:05 1012 29.88 841 24.83 6.5 43.7 53 -2.4 27.6
21:10 1012 29.88 841 24.83 6.4 43.5 55 -2.1 28.2
21:15 1012 29.88 841 24.83 6.3 43.3 56 -1.9 28.6
21:20 1012 29.88 841 24.83 6.3 43.3 56 -1.9 28.5
21:25 1012 29.88 841 24.83 6.2 43.2 56 -1.9 28.6
21:30 1012 29.88 841 24.83 6.3 43.3 56 -1.9 28.5
21:35 1012 29.88 841 24.83 6.3 43.3 56 -1.8 28.8
21:40 1012 29.88 841 24.83 6.3 43.3 56 -1.9 28.6
21:45 1012 29.88 841 24.83 6.2 43.1 57 -1.7 29
21:50 1011 29.85 841 24.83 6.2 43.2 56 -2 28.4
21:55 1011 29.85 841 24.83 6.5 43.6 55 -1.9 28.6
22:00 1011 29.85 840 24.81 6.5 43.8 54 -2 28.4
22:05 1011 29.85 840 24.81 6.6 43.8 55 -1.8 28.7
22:10 1011 29.85 840 24.81 6.6 43.9 54 -2 28.5
22:15 1011 29.85 841 24.83 6.8 44.2 54 -1.8 28.7
22:20 1011 29.85 840 24.81 6.6 43.8 55 -1.9 28.5
22:25 1011 29.85 840 24.81 6.8 44.2 54 -1.9 28.6
22:30 1011 29.85 840 24.81 6.6 43.9 56 -1.6 29.2
22:35 1011 29.85 840 24.81 6.5 43.7 56 -1.7 28.9
22:40 1011 29.85 840 24.81 6.4 43.6 57 -1.5 29.3
22:45 1011 29.85 840 24.81 6.1 43 58 -1.4 29.5
22:50 1011 29.85 840 24.81 6 42.9 59 -1.4 29.5
22:55 1011 29.85 840 24.81 6.1 42.9 59 -1.3 29.7
23:00 1011 29.85 840 24.81 6 42.7 59 -1.4 29.5
23:05 1010 29.83 840 24.81 6 42.9 58 -1.6 29.1
23:10 1010 29.83 840 24.81 6.2 43.2 58 -1.3 29.6
23:15 1010 29.83 840 24.81 6.1 43 59 -1.3 29.6
23:20 1010 29.83 840 24.81 6.1 42.9 59 -1.4 29.5
23:25 1010 29.83 840 24.81 6.1 43 58 -1.4 29.5
23:30 1010 29.83 840 24.81 6.3 43.3 59 -1.3 29.7
23:35 1010 29.83 839 24.78 6.2 43.2 59 -1.1 30.1
23:40 1010 29.83 840 24.81 6.2 43.2 58 -1.3 29.6
23:45 1010 29.83 839 24.78 6.3 43.3 59 -1.1 30.1
23:50 1010 29.83 839 24.78 6.1 42.9 60 -1.1 30
23:55 1010 29.83 840 24.81 6 42.9 59 -1.3 29.6
24:00 1010 29.83 840 24.81 6.1 42.9 60 -1.2 29.9